createdAt,value
2022-07-26T00:00:28.537Z,4.25
2022-07-26T00:13:01.416Z,3.85
2022-07-26T00:19:04.947Z,4.00
2022-07-26T00:25:08.491Z,3.72
2022-07-26T00:31:12.140Z,4.03
2022-07-26T00:37:18.349Z,4.30
2022-07-26T00:43:22.092Z,3.40
2022-07-26T00:49:23.926Z,3.75
2022-07-26T00:55:26.948Z,3.85
2022-07-26T01:01:28.860Z,4.13
2022-07-26T01:07:30.740Z,3.80
2022-07-26T01:13:35.508Z,3.83
2022-07-26T01:19:37.599Z,4.15
2022-07-26T01:25:43.539Z,3.67
2022-07-26T01:31:48.329Z,3.83
2022-07-26T01:37:50.114Z,4.20
2022-07-26T01:43:51.882Z,3.90
2022-07-26T01:49:53.884Z,3.70
2022-07-26T01:55:55.663Z,3.42
2022-07-26T02:01:57.527Z,3.70
2022-07-26T02:07:59.479Z,4.28
2022-07-26T02:14:03.197Z,3.95
2022-07-26T02:20:06.298Z,4.10
2022-07-26T02:26:08.354Z,3.60
2022-07-26T02:32:11.143Z,3.70
2022-07-26T02:38:14.935Z,3.28
2022-07-26T02:44:17.146Z,2.50
2022-07-26T02:50:20.809Z,2.40
2022-07-26T02:56:22.665Z,2.50
2022-07-26T03:02:24.526Z,2.28
2022-07-26T03:08:26.344Z,2.60
2022-07-26T03:14:28.149Z,1.70
2022-07-26T03:20:30.125Z,2.20
2022-07-26T03:26:31.885Z,2.60
2022-07-26T03:32:33.668Z,1.77
2022-07-26T03:38:35.430Z,1.95
2022-07-26T03:44:37.261Z,1.70
2022-07-26T03:50:39.048Z,2.33
2022-07-26T03:56:41.136Z,2.15
2022-07-26T04:02:43.500Z,2.50
2022-07-26T04:08:45.346Z,1.83
2022-07-26T04:14:47.089Z,2.03
2022-07-26T04:20:48.862Z,1.88
2022-07-26T04:26:50.627Z,2.03
2022-07-26T04:32:52.393Z,1.85
2022-07-26T04:38:54.192Z,1.80
2022-07-26T04:44:55.979Z,2.00
2022-07-26T04:50:57.793Z,2.38
2022-07-26T04:56:59.611Z,2.00
2022-07-26T05:03:02.383Z,2.00
2022-07-26T05:09:04.373Z,2.25
2022-07-26T05:15:06.945Z,2.50
2022-07-26T05:21:16.506Z,2.50
2022-07-26T05:27:18.244Z,2.67
2022-07-26T05:33:20.155Z,2.30
2022-07-26T05:39:21.948Z,2.67
2022-07-26T05:45:23.738Z,2.60
2022-07-26T05:51:25.513Z,2.60
2022-07-26T05:57:28.388Z,2.55
2022-07-26T06:03:32.036Z,2.70
2022-07-26T06:09:33.854Z,2.78
2022-07-26T06:15:35.666Z,2.75
2022-07-26T06:21:37.541Z,3.55
2022-07-26T06:27:39.413Z,3.83
2022-07-26T06:33:41.165Z,4.65
2022-07-26T06:39:42.982Z,4.97
2022-07-26T06:45:44.796Z,5.90
2022-07-26T06:51:46.659Z,5.68
2022-07-26T06:57:49.710Z,5.47
2022-07-26T07:03:52.288Z,5.80
2022-07-26T07:09:54.380Z,5.75
2022-07-26T07:15:56.206Z,6.40
2022-07-26T07:21:57.985Z,7.00
2022-07-26T07:28:00.339Z,7.10
2022-07-26T07:34:02.146Z,6.75
2022-07-26T07:40:07.640Z,6.97
2022-07-26T07:46:09.524Z,7.90
2022-07-26T07:52:11.449Z,6.93
2022-07-26T07:58:15.774Z,7.30
2022-07-26T08:04:19.389Z,7.35
2022-07-26T08:10:21.393Z,6.53
2022-07-26T08:16:23.286Z,5.95
2022-07-26T08:22:25.122Z,6.60
2022-07-26T08:28:46.810Z,5.78
2022-07-26T08:34:51.820Z,6.10
2022-07-26T08:40:54.537Z,4.90
2022-07-26T08:46:56.365Z,4.80
2022-07-26T08:53:01.677Z,4.53
2022-07-26T08:59:19.387Z,4.30
2022-07-26T09:05:31.813Z,4.68
2022-07-26T09:11:33.876Z,4.18
2022-07-26T09:17:44.734Z,4.28
2022-07-26T09:23:46.578Z,4.15
2022-07-26T09:29:50.134Z,4.20
2022-07-26T09:36:04.617Z,3.65
2022-07-26T09:42:27.413Z,3.10
2022-07-26T09:48:52.392Z,2.95
2022-07-26T09:54:52.546Z,3.40
2022-07-26T10:00:58.956Z,3.03
2022-07-26T10:07:04.368Z,2.78
2022-07-26T10:13:08.567Z,2.20
2022-07-26T10:19:10.350Z,2.25
2022-07-26T10:25:33.876Z,2.05
2022-07-26T10:31:35.697Z,2.00
2022-07-26T10:37:37.581Z,1.55
2022-07-26T10:44:11.785Z,1.52
2022-07-26T10:50:32.464Z,1.63
2022-07-26T10:56:34.462Z,1.58
2022-07-26T11:02:36.545Z,1.50
2022-07-26T11:08:38.413Z,1.42
2022-07-26T11:14:42.701Z,1.50
2022-07-26T11:20:53.176Z,1.50
2022-07-26T11:26:55.596Z,1.40
2022-07-26T11:33:04.577Z,1.30
2022-07-26T11:39:09.603Z,1.08
2022-07-26T11:45:11.616Z,1.20
2022-07-26T11:51:14.461Z,0.90
2022-07-26T11:57:22.886Z,0.70
2022-07-26T12:03:26.770Z,0.90
2022-07-26T12:09:34.776Z,0.80
2022-07-26T12:15:48.398Z,0.93
2022-07-26T12:21:57.125Z,0.90
2022-07-26T12:27:58.949Z,1.02
2022-07-26T12:34:00.732Z,0.70
2022-07-26T12:40:11.501Z,1.15
2022-07-26T12:46:13.305Z,0.70
2022-07-26T12:52:17.205Z,1.40
2022-07-26T12:58:18.933Z,1.25
2022-07-26T13:04:20.952Z,1.10
2022-07-26T13:10:33.597Z,1.00
2022-07-26T13:16:36.238Z,1.00
2022-07-26T13:22:38.040Z,0.80
2022-07-26T13:28:40.664Z,0.80
2022-07-26T13:34:43.396Z,1.00
2022-07-26T13:40:45.385Z,0.93
2022-07-26T13:46:47.207Z,1.00
2022-07-26T13:52:49.142Z,0.90
2022-07-26T13:58:51.002Z,0.85
2022-07-26T14:04:52.833Z,1.38
2022-07-26T14:10:54.704Z,1.20
2022-07-26T14:16:56.538Z,1.10
2022-07-26T14:22:58.374Z,1.13
2022-07-26T14:29:00.180Z,0.95
2022-07-26T14:35:02.063Z,0.82
2022-07-26T14:41:03.911Z,0.70
2022-07-26T14:47:06.979Z,0.85
2022-07-26T14:53:11.853Z,0.75
2022-07-26T14:59:13.867Z,0.70
2022-07-26T15:05:17.348Z,0.80
2022-07-26T15:11:19.112Z,0.52
2022-07-26T15:17:20.904Z,0.60
2022-07-26T15:23:22.738Z,1.00
2022-07-26T15:29:24.682Z,1.10
2022-07-26T15:35:26.519Z,0.80
2022-07-26T15:41:28.368Z,1.20
2022-07-26T15:47:53.042Z,0.55
2022-07-26T15:53:52.077Z,0.90
2022-07-26T15:59:53.845Z,0.70
2022-07-26T16:05:56.857Z,0.52
2022-07-26T16:12:02.763Z,0.70
2022-07-26T16:18:07.767Z,0.75
2022-07-26T16:24:09.595Z,0.57
2022-07-26T16:30:13.259Z,0.70
2022-07-26T16:36:16.200Z,0.80
2022-07-26T16:42:18.026Z,0.80
2022-07-26T16:48:19.848Z,0.85
2022-07-26T16:54:21.715Z,0.90
2022-07-26T17:00:23.653Z,1.00
2022-07-26T17:06:25.561Z,1.00
2022-07-26T17:12:27.307Z,1.08
2022-07-26T17:18:29.887Z,1.40
2022-07-26T17:24:31.734Z,1.20
2022-07-26T17:30:33.534Z,1.10
2022-07-26T17:36:35.986Z,0.90
2022-07-26T17:42:39.518Z,0.60
2022-07-26T17:48:43.945Z,0.75
2022-07-26T17:54:45.766Z,0.85
2022-07-26T18:00:47.577Z,0.60
2022-07-26T18:06:49.716Z,0.70
2022-07-26T18:12:51.500Z,0.80
2022-07-26T18:18:53.582Z,0.85
2022-07-26T18:24:55.396Z,0.80
2022-07-26T18:30:57.462Z,0.90
2022-07-26T18:36:59.425Z,0.90
2022-07-26T18:43:01.452Z,0.90
2022-07-26T18:49:03.410Z,0.70
2022-07-26T18:55:08.420Z,0.80
2022-07-26T19:01:10.323Z,1.20
2022-07-26T19:07:12.185Z,0.80
2022-07-26T19:13:13.999Z,1.00
2022-07-26T19:19:16.344Z,1.10
2022-07-26T19:25:18.884Z,1.00
2022-07-26T19:31:21.105Z,1.10
2022-07-26T19:37:23.084Z,1.00
2022-07-26T19:43:24.985Z,1.20
2022-07-26T19:49:26.880Z,1.42
2022-07-26T19:55:28.767Z,1.50
2022-07-26T20:01:30.603Z,1.50
2022-07-26T20:07:32.470Z,1.52
2022-07-26T20:13:35.275Z,1.63
2022-07-26T20:19:37.397Z,1.08
2022-07-26T20:25:39.215Z,1.30
2022-07-26T20:31:41.175Z,1.45
2022-07-26T20:37:43.598Z,1.40
2022-07-26T20:43:45.349Z,1.30
2022-07-26T20:49:47.743Z,1.65
2022-07-26T20:55:49.692Z,1.42
2022-07-26T21:01:51.573Z,1.80
2022-07-26T21:07:58.897Z,1.67
2022-07-26T21:14:01.517Z,1.60
2022-07-26T21:20:04.729Z,4.45
2022-07-26T21:26:06.604Z,2.17
2022-07-26T21:32:08.457Z,2.00
2022-07-26T21:38:10.375Z,1.75
2022-07-26T21:44:12.785Z,1.60
2022-07-26T21:50:14.773Z,1.70
2022-07-26T21:56:16.731Z,2.53
2022-07-26T22:02:20.038Z,4.22
2022-07-26T22:08:24.234Z,3.92
2022-07-26T22:14:26.021Z,4.10
2022-07-26T22:20:31.021Z,3.35
2022-07-26T22:26:33.227Z,2.65
2022-07-26T22:32:35.162Z,3.45
2022-07-26T22:38:37.409Z,2.72
2022-07-26T22:44:39.276Z,1.90
2022-07-26T22:50:41.056Z,1.90
2022-07-26T23:03:19.470Z,2.40
2022-07-26T23:09:21.711Z,2.63
2022-07-26T23:15:23.689Z,1.80
2022-07-26T23:21:25.723Z,1.70
2022-07-26T23:27:27.498Z,1.50
2022-07-26T23:33:53.076Z,2.15
2022-07-26T23:39:51.080Z,1.40
2022-07-26T23:45:52.875Z,1.83
2022-07-26T23:51:54.776Z,2.00
2022-07-26T23:57:56.574Z,1.73
